Time;durP1;ratioP1;P1;durP2;ratioP2;P2;SDS_P1;SDS_P2;PMS_P1;PMS_P2;Temp;Humidity;BMP_temperature;BMP_pressure;BME280_temperature;BME280_humidity;BME280_pressure;Samples;Min_cycle;Max_cycle;Signal;HPM_P1;HPM_P2
2021/08/08 00:01:17;;;;;;;5.03;1.60;;;18.70;96.00;;;;;;5031353;28;20033;-75
2021/08/08 00:03:43;;;;;;;3.33;1.35;;;18.60;95.90;;;;;;5031450;28;20029;-75
2021/08/08 00:06:08;;;;;;;3.08;1.40;;;18.70;96.00;;;;;;5031069;28;20022;-74
2021/08/08 00:08:34;;;;;;;3.50;1.35;;;18.70;96.00;;;;;;5031143;28;20030;-75
2021/08/08 00:11:01;;;;;;;2.50;1.33;;;18.70;96.00;;;;;;5031242;28;20045;-73
2021/08/08 00:13:27;;;;;;;5.45;1.30;;;18.60;96.10;;;;;;5031075;28;20033;-73
2021/08/08 00:15:52;;;;;;;3.00;1.25;;;18.70;96.00;;;;;;5030041;28;20032;-73
2021/08/08 00:18:18;;;;;;;3.22;1.10;;;18.70;95.90;;;;;;5031051;28;20018;-74
2021/08/08 00:20:44;;;;;;;2.53;1.45;;;18.70;95.80;;;;;;5031448;28;20032;-74
2021/08/08 00:23:10;;;;;;;2.53;1.23;;;18.70;95.70;;;;;;5029687;28;20057;-74
2021/08/08 00:25:36;;;;;;;3.22;1.30;;;18.70;95.50;;;;;;5029841;28;20037;-74
2021/08/08 00:28:02;;;;;;;2.50;1.27;;;18.70;95.10;;;;;;5031215;28;20391;-73
2021/08/08 00:30:28;;;;;;;1.98;1.30;;;18.70;94.90;;;;;;5030776;28;20516;-73
2021/08/08 00:32:54;;;;;;;2.40;1.33;;;18.70;94.80;;;;;;5031386;28;20269;-73
2021/08/08 00:35:20;;;;;;;5.13;1.30;;;18.80;94.70;;;;;;5030828;28;20029;-73
2021/08/08 00:37:47;;;;;;;4.43;1.60;;;18.70;94.50;;;;;;5030800;28;20091;-73
2021/08/08 00:40:15;;;;;;;4.30;1.52;;;18.70;94.20;;;;;;5030955;28;20044;-73
2021/08/08 00:42:46;;;;;;;2.90;1.35;;;18.70;94.00;;;;;;5029623;28;20029;-74
2021/08/08 00:45:14;;;;;;;5.07;1.05;;;18.80;94.00;;;;;;5031199;28;20017;-74
2021/08/08 00:47:42;;;;;;;2.33;1.23;;;18.80;94.20;;;;;;5031032;28;20045;-74
2021/08/08 00:50:09;;;;;;;3.47;0.98;;;18.70;93.80;;;;;;5030888;28;20053;-73
2021/08/08 00:52:35;;;;;;;3.17;0.93;;;18.70;93.80;;;;;;5030709;28;20041;-74
2021/08/08 00:55:00;;;;;;;2.65;1.10;;;18.70;93.70;;;;;;5029562;28;20053;-75
2021/08/08 00:57:26;;;;;;;0.80;0.73;;;18.70;93.60;;;;;;5030662;28;20029;-73
2021/08/08 00:59:52;;;;;;;4.18;1.10;;;18.70;93.50;;;;;;5034995;28;20078;-74
2021/08/08 01:02:21;;;;;;;4.03;0.80;;;18.70;93.60;;;;;;5034575;28;20072;-72
2021/08/08 01:05:10;;;;;;;0.60;0.60;;;18.70;93.50;;;;;;5033642;28;20352;-75
2021/08/08 01:07:53;;;;;;;4.38;1.42;;;18.70;93.70;;;;;;5033453;28;20029;-75
2021/08/08 01:10:19;;;;;;;2.10;0.80;;;18.60;93.70;;;;;;5034407;28;20033;-72
2021/08/08 01:12:48;;;;;;;4.15;1.00;;;18.60;93.80;;;;;;5033271;28;20025;-74
2021/08/08 01:15:13;;;;;;;3.22;1.10;;;18.60;93.80;;;;;;5034506;28;20036;-75
2021/08/08 01:17:42;;;;;;;1.98;0.75;;;18.60;93.60;;;;;;5034702;28;20022;-74
2021/08/08 01:20:10;;;;;;;1.98;1.15;;;18.60;93.30;;;;;;5034731;28;20044;-73
2021/08/08 01:22:40;;;;;;;2.88;0.88;;;18.60;93.30;;;;;;5032951;28;20058;-74
2021/08/08 01:25:07;;;;;;;3.00;1.00;;;18.60;93.40;;;;;;5034171;28;20515;-74
2021/08/08 01:27:33;;;;;;;5.10;0.98;;;18.60;93.60;;;;;;5033947;28;20037;-73
2021/08/08 01:29:59;;;;;;;2.42;0.90;;;18.50;93.70;;;;;;5034664;28;20084;-73
2021/08/08 01:32:25;;;;;;;1.75;0.85;;;18.50;93.80;;;;;;5033052;28;20029;-76
2021/08/08 01:34:51;;;;;;;1.85;0.77;;;18.50;93.80;;;;;;5034604;28;20479;-74
2021/08/08 01:37:20;;;;;;;2.50;0.90;;;18.50;93.50;;;;;;5053935;28;20072;-73
2021/08/08 01:39:52;;;;;;;2.72;1.02;;;18.40;93.40;;;;;;5052891;28;20414;-74
2021/08/08 01:42:17;;;;;;;1.15;0.63;;;18.40;93.40;;;;;;5053959;28;20021;-75
2021/08/08 01:44:48;;;;;;;1.80;0.82;;;18.40;93.20;;;;;;5054431;28;20029;-74
2021/08/08 01:47:18;;;;;;;1.73;0.80;;;18.40;93.10;;;;;;5054119;28;20032;-73
2021/08/08 01:49:44;;;;;;;1.25;0.77;;;18.30;93.10;;;;;;5053961;28;20090;-74
2021/08/08 01:52:10;;;;;;;2.47;0.70;;;18.30;93.10;;;;;;5053806;28;20064;-74
2021/08/08 01:54:37;;;;;;;1.85;0.70;;;18.30;93.00;;;;;;5053547;28;20067;-74
2021/08/08 01:57:04;;;;;;;2.45;0.60;;;18.30;92.80;;;;;;5054089;28;20029;-74
2021/08/08 01:59:30;;;;;;;4.82;0.60;;;18.30;92.80;;;;;;5053523;28;20170;-74
2021/08/08 02:01:55;;;;;;;4.53;1.00;;;18.30;92.80;;;;;;5053378;28;20112;-75
2021/08/08 02:04:26;;;;;;;3.08;0.80;;;18.30;92.80;;;;;;5053337;28;20041;-75
2021/08/08 02:06:52;;;;;;;1.98;0.70;;;18.20;92.60;;;;;;5053462;28;20044;-74
2021/08/08 02:09:18;;;;;;;1.15;0.80;;;18.20;92.70;;;;;;5052726;28;20029;-73
2021/08/08 02:11:44;;;;;;;2.72;0.60;;;18.20;92.60;;;;;;5053688;28;20090;-73
2021/08/08 02:14:11;;;;;;;1.88;0.65;;;18.20;92.50;;;;;;5053182;28;20041;-73
2021/08/08 02:16:37;;;;;;;3.15;1.10;;;18.20;92.50;;;;;;5053405;28;20033;-73
2021/08/08 02:19:03;;;;;;;2.40;0.75;;;18.20;92.50;;;;;;5053122;28;20033;-74
2021/08/08 02:21:29;;;;;;;1.20;0.73;;;18.10;92.50;;;;;;5053070;28;20352;-74
2021/08/08 02:23:54;;;;;;;3.92;0.77;;;18.20;92.60;;;;;;5053455;28;20064;-73
2021/08/08 02:26:20;;;;;;;3.53;0.90;;;18.20;92.60;;;;;;5052967;28;20033;-74
2021/08/08 02:28:46;;;;;;;4.82;0.77;;;18.20;92.60;;;;;;5052961;28;20029;-73
2021/08/08 02:31:12;;;;;;;3.25;1.40;;;18.20;92.60;;;;;;5053094;28;20124;-72
2021/08/08 02:33:37;;;;;;;1.17;0.70;;;18.10;92.50;;;;;;5052873;28;20367;-73
2021/08/08 02:36:04;;;;;;;2.03;0.68;;;18.20;92.60;;;;;;5053291;28;20043;-74
2021/08/08 02:38:29;;;;;;;1.48;0.80;;;18.10;92.50;;;;;;5052724;28;20447;-72
2021/08/08 02:40:55;;;;;;;1.55;0.57;;;18.10;92.50;;;;;;5052668;28;20033;-73
2021/08/08 02:43:21;;;;;;;2.42;0.90;;;18.20;92.50;;;;;;5052851;28;20482;-73
2021/08/08 02:45:49;;;;;;;2.75;0.80;;;18.10;92.40;;;;;;5052893;28;20454;-74
2021/08/08 02:48:18;;;;;;;2.28;0.80;;;18.10;92.40;;;;;;5052701;28;20029;-74
2021/08/08 02:50:43;;;;;;;2.10;0.70;;;18.10;92.40;;;;;;5052912;28;20033;-73
2021/08/08 02:53:09;;;;;;;2.22;0.65;;;18.10;92.40;;;;;;5052677;28;20033;-73
2021/08/08 02:55:35;;;;;;;1.00;0.50;;;18.10;92.50;;;;;;5052391;28;20025;-74
2021/08/08 02:58:00;;;;;;;2.38;0.65;;;18.10;92.50;;;;;;5052599;28;20036;-74
2021/08/08 03:00:26;;;;;;;3.10;0.73;;;18.00;92.50;;;;;;5052485;28;20083;-73
2021/08/08 03:02:51;;;;;;;2.92;0.57;;;18.00;92.50;;;;;;5051624;28;20029;-73
2021/08/08 03:05:17;;;;;;;1.75;0.82;;;18.00;92.60;;;;;;5052401;28;20514;-73
2021/08/08 03:07:42;;;;;;;5.85;0.85;;;18.00;92.60;;;;;;5052326;28;20025;-74
2021/08/08 03:10:10;;;;;;;1.20;0.50;;;18.00;92.60;;;;;;5052442;28;20033;-73
2021/08/08 03:12:36;;;;;;;1.80;0.65;;;18.00;92.70;;;;;;5052205;28;20071;-73
2021/08/08 03:15:02;;;;;;;1.33;0.63;;;17.90;92.70;;;;;;5051422;28;20032;-75
2021/08/08 03:17:28;;;;;;;4.38;0.50;;;17.90;92.70;;;;;;5052013;28;20036;-74
2021/08/08 03:19:54;;;;;;;0.95;0.60;;;17.90;92.80;;;;;;5050799;28;20028;-74
2021/08/08 03:22:19;;;;;;;3.80;0.80;;;17.90;92.80;;;;;;5050532;28;20059;-73
2021/08/08 03:24:45;;;;;;;0.98;0.45;;;17.90;92.80;;;;;;5051921;28;20032;-74
2021/08/08 03:27:11;;;;;;;0.98;0.55;;;17.90;92.90;;;;;;5052215;28;20024;-73
2021/08/08 03:29:37;;;;;;;2.25;0.88;;;17.90;92.90;;;;;;5051705;28;20033;-72
2021/08/08 03:32:03;;;;;;;1.83;0.75;;;17.90;92.90;;;;;;5051691;28;20033;-72
2021/08/08 03:34:29;;;;;;;5.30;0.90;;;17.80;93.00;;;;;;5051658;28;20029;-75
2021/08/08 03:36:55;;;;;;;1.15;0.65;;;17.90;92.90;;;;;;5051450;28;20520;-75
2021/08/08 03:39:25;;;;;;;3.00;0.80;;;17.90;93.00;;;;;;5051669;28;20056;-73
2021/08/08 03:41:51;;;;;;;1.63;0.60;;;17.90;93.00;;;;;;5051979;28;20013;-73
2021/08/08 03:44:16;;;;;;;2.92;0.60;;;17.80;93.00;;;;;;5051696;28;20124;-73
2021/08/08 03:46:42;;;;;;;1.83;0.73;;;17.80;93.10;;;;;;5051473;28;20539;-73
2021/08/08 03:49:09;;;;;;;1.63;0.65;;;18.00;93.10;;;;;;5051424;28;20045;-73
2021/08/08 03:51:35;;;;;;;2.20;0.70;;;17.90;93.00;;;;;;5051375;28;20052;-73
2021/08/08 03:54:01;;;;;;;1.08;0.60;;;17.90;93.10;;;;;;5050698;28;20068;-73
2021/08/08 03:56:26;;;;;;;1.88;0.60;;;17.90;93.10;;;;;;5051357;28;20032;-74
2021/08/08 03:58:52;;;;;;;1.33;0.52;;;17.90;93.00;;;;;;5051355;28;20043;-76
2021/08/08 04:01:18;;;;;;;1.58;0.88;;;17.90;93.10;;;;;;5051248;28;20033;-75
2021/08/08 04:03:43;;;;;;;3.65;0.60;;;17.90;93.10;;;;;;5051057;28;20422;-73
2021/08/08 04:06:09;;;;;;;1.40;0.52;;;17.80;93.10;;;;;;5051854;28;20021;-72
2021/08/08 04:08:34;;;;;;;0.77;0.45;;;17.90;93.20;;;;;;5051170;28;20056;-73
2021/08/08 04:11:00;;;;;;;2.00;0.60;;;17.80;93.20;;;;;;5051163;28;20032;-74
2021/08/08 04:13:26;;;;;;;0.57;0.47;;;17.80;93.20;;;;;;5051166;28;20281;-73
2021/08/08 04:15:51;;;;;;;2.22;0.70;;;17.90;93.20;;;;;;5050988;28;20052;-74
2021/08/08 04:18:17;;;;;;;1.65;0.85;;;17.90;93.30;;;;;;5050730;28;20096;-76
2021/08/08 04:20:43;;;;;;;1.33;0.35;;;17.80;93.20;;;;;;5051791;28;20761;-74
2021/08/08 04:23:10;;;;;;;1.48;0.55;;;17.80;93.30;;;;;;5051289;28;20049;-73
2021/08/08 04:25:37;;;;;;;2.83;0.77;;;17.80;93.30;;;;;;5050996;28;20086;-72
2021/08/08 04:28:04;;;;;;;2.78;0.70;;;17.90;93.40;;;;;;5049922;28;20039;-73
2021/08/08 04:30:31;;;;;;;1.95;0.70;;;17.90;93.40;;;;;;5050733;28;20021;-74
2021/08/08 04:32:57;;;;;;;1.95;0.60;;;17.80;93.40;;;;;;5050809;28;20025;-74
2021/08/08 04:35:23;;;;;;;1.67;0.80;;;17.80;93.40;;;;;;5049580;28;20040;-74
2021/08/08 04:37:48;;;;;;;5.43;1.10;;;17.90;93.50;;;;;;5050867;28;20561;-74
2021/08/08 04:40:14;;;;;;;0.55;0.55;;;17.90;93.50;;;;;;5050788;28;20094;-74
2021/08/08 04:42:40;;;;;;;1.00;0.70;;;17.80;93.60;;;;;;5050541;28;20082;-74
2021/08/08 04:45:06;;;;;;;2.70;0.65;;;17.80;93.50;;;;;;5051146;28;20027;-73
2021/08/08 04:47:32;;;;;;;3.63;0.80;;;17.80;93.60;;;;;;5050698;28;20025;-73
2021/08/08 04:49:57;;;;;;;1.15;0.60;;;17.90;93.70;;;;;;5050542;28;20025;-73
2021/08/08 04:52:24;;;;;;;3.65;0.70;;;17.80;93.80;;;;;;5050604;28;20029;-74
2021/08/08 04:54:49;;;;;;;2.67;0.70;;;17.80;93.90;;;;;;5050651;28;20064;-75
2021/08/08 04:57:15;;;;;;;1.98;0.65;;;17.90;93.90;;;;;;5050581;28;20479;-74
2021/08/08 04:59:40;;;;;;;2.38;0.73;;;17.90;94.00;;;;;;5051009;28;20489;-74
2021/08/08 05:02:06;;;;;;;4.28;0.80;;;17.90;93.90;;;;;;5050409;28;20494;-73
2021/08/08 05:04:31;;;;;;;3.78;0.73;;;17.90;93.90;;;;;;5050420;28;20422;-74
2021/08/08 05:06:57;;;;;;;1.23;0.70;;;17.90;94.10;;;;;;5049075;28;20029;-75
2021/08/08 05:09:24;;;;;;;4.20;1.00;;;17.90;93.90;;;;;;5050552;28;20029;-74
2021/08/08 05:11:50;;;;;;;3.10;1.08;;;17.90;93.90;;;;;;5050934;28;20055;-72
2021/08/08 05:14:16;;;;;;;4.57;1.33;;;17.90;93.90;;;;;;5050402;28;20052;-73
2021/08/08 05:16:41;;;;;;;1.83;0.75;;;17.90;93.70;;;;;;5050367;28;20021;-75
2021/08/08 05:19:07;;;;;;;3.20;0.88;;;17.90;93.70;;;;;;5050283;28;20475;-75
2021/08/08 05:21:32;;;;;;;1.45;0.80;;;18.00;93.70;;;;;;5050214;28;20041;-74
2021/08/08 05:23:58;;;;;;;3.92;0.95;;;18.00;93.80;;;;;;5050664;28;20463;-73
2021/08/08 05:26:25;;;;;;;7.15;1.17;;;18.00;93.70;;;;;;5036627;28;20040;-74
2021/08/08 05:28:50;;;;;;;5.22;1.20;;;18.00;93.70;;;;;;5030391;28;20030;-72
2021/08/08 05:31:16;;;;;;;2.10;1.00;;;18.00;93.70;;;;;;5030386;28;20053;-75
2021/08/08 05:33:41;;;;;;;2.92;1.20;;;18.00;93.70;;;;;;5030067;28;20407;-74
2021/08/08 05:36:07;;;;;;;3.58;1.40;;;18.10;93.70;;;;;;5030756;28;20359;-74
2021/08/08 05:38:32;;;;;;;2.63;1.05;;;18.10;93.70;;;;;;5030235;28;20034;-71
2021/08/08 05:40:58;;;;;;;2.35;0.82;;;18.10;93.80;;;;;;5030172;28;20033;-73
2021/08/08 05:43:24;;;;;;;1.92;1.00;;;18.00;93.80;;;;;;5030464;28;20084;-75
2021/08/08 05:45:49;;;;;;;5.93;1.30;;;18.10;93.80;;;;;;5031442;28;20025;-74
2021/08/08 05:48:15;;;;;;;6.35;1.40;;;18.10;93.80;;;;;;5032869;28;20033;-78
2021/08/08 05:50:41;;;;;;;2.08;0.80;;;18.10;93.70;;;;;;5034257;28;20104;-75
2021/08/08 05:53:07;;;;;;;1.90;1.17;;;18.20;93.80;;;;;;5033774;28;20120;-76
2021/08/08 05:55:36;;;;;;;2.60;1.33;;;18.20;93.80;;;;;;5032421;28;20112;-72
2021/08/08 05:58:02;;;;;;;5.55;1.40;;;18.20;93.70;;;;;;5033620;28;20395;-74
2021/08/08 06:00:27;;;;;;;1.67;0.82;;;18.10;93.70;;;;;;5033343;28;20443;-74
2021/08/08 06:02:53;;;;;;;2.22;1.45;;;18.10;93.70;;;;;;5033833;28;20414;-72
2021/08/08 06:05:18;;;;;;;2.92;1.25;;;18.20;93.80;;;;;;5032747;28;20470;-76
2021/08/08 06:07:44;;;;;;;2.05;1.30;;;18.20;93.70;;;;;;5033430;28;20091;-73
2021/08/08 06:10:10;;;;;;;2.63;1.10;;;18.20;93.70;;;;;;5032405;28;20336;-74
2021/08/08 06:12:35;;;;;;;1.75;1.10;;;18.20;93.80;;;;;;5033527;28;20057;-72
2021/08/08 06:15:01;;;;;;;4.22;1.15;;;18.30;93.70;;;;;;5033746;28;20051;-74
2021/08/08 06:17:29;;;;;;;2.75;1.23;;;18.30;93.70;;;;;;5033262;28;20033;-73
2021/08/08 06:19:55;;;;;;;6.30;1.15;;;18.30;93.70;;;;;;5033363;28;20029;-73
2021/08/08 06:22:20;;;;;;;4.38;1.23;;;18.30;93.70;;;;;;5032934;28;20115;-73
2021/08/08 06:24:46;;;;;;;3.75;1.15;;;18.30;93.70;;;;;;5033196;28;20049;-74
2021/08/08 06:27:11;;;;;;;5.30;1.20;;;18.30;93.70;;;;;;5033463;28;20031;-74
2021/08/08 06:29:37;;;;;;;6.95;1.50;;;18.30;93.70;;;;;;5032966;28;20040;-75
2021/08/08 06:32:05;;;;;;;3.42;1.40;;;18.30;93.60;;;;;;5033121;28;20033;-73
2021/08/08 06:34:30;;;;;;;3.03;1.45;;;18.40;93.60;;;;;;5032696;28;20038;-73
2021/08/08 06:36:56;;;;;;;9.07;1.63;;;18.40;93.60;;;;;;5032893;28;20515;-72
2021/08/08 06:39:21;;;;;;;3.97;1.40;;;18.40;93.50;;;;;;5032913;28;20041;-73
2021/08/08 06:41:47;;;;;;;7.95;1.83;;;18.50;93.40;;;;;;5033619;28;20106;-84
2021/08/08 06:44:12;;;;;;;3.67;1.60;;;18.50;93.30;;;;;;5032928;28;20026;-74
2021/08/08 06:46:38;;;;;;;6.22;1.75;;;18.50;93.20;;;;;;5032748;28;20449;-73
2021/08/08 06:49:03;;;;;;;6.90;2.05;;;18.60;93.00;;;;;;5032844;28;20030;-73
2021/08/08 06:51:29;;;;;;;4.53;1.60;;;18.50;92.80;;;;;;5032631;28;20033;-73
2021/08/08 06:53:54;;;;;;;5.05;1.45;;;18.60;92.80;;;;;;5033078;28;20079;-73
2021/08/08 06:56:20;;;;;;;3.70;1.38;;;18.60;92.70;;;;;;5032251;28;20026;-74
2021/08/08 06:58:45;;;;;;;6.30;1.83;;;18.60;92.60;;;;;;5032546;28;20030;-74
2021/08/08 07:01:16;;;;;;;6.05;1.45;;;18.70;92.60;;;;;;5032080;28;20333;-74
2021/08/08 07:03:41;;;;;;;6.90;1.83;;;18.70;92.30;;;;;;5032296;28;20087;-76
2021/08/08 07:06:07;;;;;;;6.65;2.03;;;18.70;92.20;;;;;;5031859;28;20457;-74
2021/08/08 07:08:32;;;;;;;5.22;1.50;;;18.80;92.10;;;;;;5032616;28;20523;-75
2021/08/08 07:10:58;;;;;;;5.10;1.70;;;18.80;91.90;;;;;;5032468;28;20029;-76
2021/08/08 07:13:23;;;;;;;4.65;1.65;;;18.80;91.80;;;;;;5032195;28;20124;-77
2021/08/08 07:15:49;;;;;;;3.95;1.40;;;18.70;91.70;;;;;;5032076;28;20025;-77
2021/08/08 07:18:14;;;;;;;3.97;1.50;;;18.80;92.00;;;;;;5032357;28;20021;-76
2021/08/08 07:20:40;;;;;;;7.57;2.35;;;18.80;91.60;;;;;;5031530;28;20033;-74
2021/08/08 07:23:06;;;;;;;4.90;1.42;;;18.80;91.50;;;;;;5031891;28;20402;-74
2021/08/08 07:25:31;;;;;;;7.07;1.83;;;18.90;91.50;;;;;;5031969;28;20103;-76
2021/08/08 07:27:57;;;;;;;7.50;1.58;;;18.90;91.50;;;;;;5031990;28;20037;-75
2021/08/08 07:30:22;;;;;;;5.03;2.17;;;18.90;91.30;;;;;;5032223;28;20116;-75
2021/08/08 07:32:48;;;;;;;2.55;1.15;;;19.00;91.20;;;;;;5032561;28;20379;-76
2021/08/08 07:35:14;;;;;;;8.38;2.00;;;19.00;91.10;;;;;;5031677;28;20483;-77
2021/08/08 07:37:39;;;;;;;5.85;1.77;;;19.00;90.90;;;;;;5031737;28;20030;-76
2021/08/08 07:40:05;;;;;;;5.00;1.48;;;19.00;90.80;;;;;;5031810;28;20042;-73
2021/08/08 07:42:31;;;;;;;4.90;1.65;;;19.00;90.70;;;;;;5031730;28;20045;-76
2021/08/08 07:44:56;;;;;;;9.25;1.90;;;18.90;90.80;;;;;;5032176;28;20095;-75
2021/08/08 07:47:22;;;;;;;10.10;2.00;;;19.10;90.60;;;;;;5031699;28;20034;-72
2021/08/08 07:49:48;;;;;;;6.35;2.28;;;19.00;90.40;;;;;;5031646;28;20038;-76
2021/08/08 07:52:13;;;;;;;4.50;1.88;;;19.00;90.50;;;;;;5031780;28;20100;-76
2021/08/08 07:54:39;;;;;;;8.48;2.47;;;19.10;90.50;;;;;;5031351;28;20037;-76
2021/08/08 07:57:05;;;;;;;7.53;2.33;;;19.10;90.60;;;;;;5031826;28;20029;-74
2021/08/08 07:59:31;;;;;;;4.78;1.77;;;19.20;90.30;;;;;;5031313;28;20087;-74
2021/08/08 08:01:56;;;;;;;9.95;2.10;;;19.20;90.30;;;;;;5031410;28;20514;-76
2021/08/08 08:04:23;;;;;;;6.50;2.13;;;19.30;90.00;;;;;;5030145;28;20503;-73
2021/08/08 08:06:49;;;;;;;5.80;1.90;;;19.30;89.70;;;;;;5032787;28;20068;-76
2021/08/08 08:09:14;;;;;;;7.82;3.20;;;19.40;89.70;;;;;;5030571;28;20447;-75
2021/08/08 08:11:41;;;;;;;13.57;2.95;;;19.40;89.40;;;;;;5031470;28;20018;-77
2021/08/08 08:14:07;;;;;;;7.82;2.35;;;19.40;89.30;;;;;;5031336;28;20493;-74
2021/08/08 08:16:32;;;;;;;8.27;2.17;;;19.50;89.20;;;;;;5031167;28;20029;-76
2021/08/08 08:18:58;;;;;;;5.80;1.88;;;19.50;88.70;;;;;;5031053;28;20025;-75
2021/08/08 08:21:24;;;;;;;7.63;2.80;;;19.50;88.40;;;;;;5031115;28;20101;-79
2021/08/08 08:23:49;;;;;;;8.20;1.92;;;19.50;88.10;;;;;;5031376;28;20049;-76
2021/08/08 08:26:15;;;;;;;5.07;2.00;;;19.50;88.10;;;;;;5031113;28;20060;-74
2021/08/08 08:28:40;;;;;;;4.32;1.83;;;19.50;88.10;;;;;;5030979;28;20026;-75
2021/08/08 08:31:07;;;;;;;7.40;1.83;;;19.70;87.70;;;;;;5030005;28;20030;-77
2021/08/08 08:33:33;;;;;;;7.57;2.22;;;20.00;87.70;;;;;;5030645;28;20111;-75
2021/08/08 08:35:58;;;;;;;7.63;2.17;;;20.00;86.50;;;;;;5031275;28;20459;-73
2021/08/08 08:38:24;;;;;;;5.47;2.10;;;20.40;86.70;;;;;;5030091;28;20581;-73
2021/08/08 08:40:50;;;;;;;9.23;2.35;;;20.70;86.20;;;;;;5030763;28;20033;-74
2021/08/08 08:43:16;;;;;;;5.22;2.15;;;21.20;84.20;;;;;;5030971;28;20116;-72
2021/08/08 08:45:45;;;;;;;5.85;1.83;;;21.70;83.50;;;;;;5030715;28;20172;-73
2021/08/08 08:48:11;;;;;;;3.05;1.85;;;22.20;82.30;;;;;;5031230;28;20566;-73
2021/08/08 08:50:37;;;;;;;5.20;1.63;;;22.50;82.00;;;;;;5030687;28;20383;-74
2021/08/08 08:53:04;;;;;;;5.45;1.70;;;22.50;81.00;;;;;;5029884;28;20515;-75
2021/08/08 08:55:29;;;;;;;7.85;2.03;;;22.60;79.30;;;;;;5030653;28;20063;-74
2021/08/08 08:57:56;;;;;;;7.00;2.00;;;23.10;79.20;;;;;;5030754;28;20581;-78
2021/08/08 09:00:24;;;;;;;8.05;1.98;;;23.10;79.00;;;;;;5029867;28;20379;-73
2021/08/08 09:02:51;;;;;;;6.45;2.33;;;22.80;77.50;;;;;;5030927;28;20101;-75
2021/08/08 09:05:19;;;;;;;7.70;2.38;;;22.10;78.30;;;;;;5030497;28;20446;-75
2021/08/08 09:07:44;;;;;;;4.95;2.20;;;21.80;78.80;;;;;;5030528;28;20436;-74
2021/08/08 09:10:14;;;;;;;10.48;2.33;;;21.70;79.30;;;;;;5029314;28;20068;-80
2021/08/08 09:12:40;;;;;;;5.05;2.05;;;22.00;79.80;;;;;;5030584;28;20029;-74
2021/08/08 09:15:07;;;;;;;5.93;2.05;;;22.00;79.10;;;;;;5030874;28;20112;-74
2021/08/08 09:17:38;;;;;;;5.50;1.80;;;22.60;79.00;;;;;;5029464;28;20370;-77
2021/08/08 09:20:08;;;;;;;6.38;1.60;;;23.30;77.00;;;;;;5032985;28;20062;-75
2021/08/08 09:22:34;;;;;;;6.13;1.50;;;23.50;75.50;;;;;;5034082;28;20061;-74
2021/08/08 09:24:59;;;;;;;5.85;1.80;;;23.60;75.50;;;;;;5034021;28;20037;-73
2021/08/08 09:27:34;;;;;;;5.60;1.60;;;23.40;75.40;;;;;;5034332;28;20049;-74
2021/08/08 09:30:02;;;;;;;5.97;1.77;;;23.20;75.00;;;;;;5033532;28;20048;-73
2021/08/08 09:32:30;;;;;;;5.50;1.35;;;23.40;75.30;;;;;;5033023;28;20036;-76
2021/08/08 09:35:04;;;;;;;6.03;1.40;;;23.60;74.00;;;;;;5032780;28;20138;-74
2021/08/08 09:37:30;;;;;;;5.20;1.52;;;23.50;73.70;;;;;;5034184;28;20044;-74
2021/08/08 09:39:56;;;;;;;13.15;1.80;;;23.70;74.10;;;;;;5032789;28;20033;-74
2021/08/08 09:42:24;;;;;;;4.07;1.27;;;24.10;73.20;;;;;;5033001;28;20025;-76
2021/08/08 09:44:58;;;;;;;5.03;1.40;;;24.10;72.90;;;;;;5034165;28;20346;-74
2021/08/08 09:47:35;;;;;;;5.78;1.33;;;24.10;72.40;;;;;;5034064;28;20029;-76
2021/08/08 09:50:04;;;;;;;3.88;1.45;;;23.80;72.50;;;;;;5033785;28;20030;-73
2021/08/08 09:52:30;;;;;;;6.65;1.65;;;23.90;72.00;;;;;;5033751;28;20025;-71
2021/08/08 09:54:55;;;;;;;9.82;1.65;;;24.10;71.80;;;;;;5033652;28;20044;-71
2021/08/08 09:57:21;;;;;;;7.57;1.98;;;24.30;73.30;;;;;;5032720;28;20030;-74
2021/08/08 09:59:48;;;;;;;6.65;1.38;;;24.40;71.50;;;;;;5033351;28;20029;-70
2021/08/08 10:02:22;;;;;;;8.73;2.03;;;24.50;71.60;;;;;;5033629;28;20337;-72
2021/08/08 10:04:51;;;;;;;6.32;1.67;;;24.50;72.20;;;;;;5033453;28;20506;-75
2021/08/08 10:07:17;;;;;;;5.15;1.48;;;24.40;71.00;;;;;;5033429;28;20103;-72
2021/08/08 10:09:49;;;;;;;4.53;1.50;;;24.10;70.00;;;;;;5033196;28;20037;-72
2021/08/08 10:12:43;;;;;;;3.15;1.20;;;24.10;70.10;;;;;;5033213;28;20025;-72
2021/08/08 10:15:09;;;;;;;6.93;1.85;;;24.10;70.80;;;;;;5033715;28;20537;-73
2021/08/08 10:17:37;;;;;;;5.55;1.52;;;23.80;70.80;;;;;;5033402;28;20041;-72
2021/08/08 10:20:05;;;;;;;7.32;1.60;;;23.70;71.10;;;;;;5032101;28;20048;-71
2021/08/08 10:22:32;;;;;;;;;;;23.60;71.70;;;;;;5033408;28;20042;-72
2021/08/08 10:24:59;;;;;;;6.70;1.52;;;23.30;72.30;;;;;;5032193;28;19908;-73
2021/08/08 10:27:25;;;;;;;5.70;1.92;;;23.00;73.00;;;;;;5033021;28;20024;-71
2021/08/08 10:29:54;;;;;;;9.05;2.30;;;22.90;73.40;;;;;;5033747;28;20455;-70
2021/08/08 10:32:23;;;;;;;8.45;1.95;;;23.00;73.70;;;;;;5031282;28;20091;-71
2021/08/08 10:34:48;;;;;;;7.57;2.20;;;23.10;73.10;;;;;;5032887;28;20478;-74
2021/08/08 10:37:14;;;;;;;5.63;2.47;;;23.20;73.10;;;;;;5032830;28;20034;-71
2021/08/08 10:39:42;;;;;;;5.00;1.60;;;23.20;72.50;;;;;;5032741;28;20103;-73
2021/08/08 10:42:08;;;;;;;8.70;1.83;;;23.30;72.50;;;;;;5033097;28;20029;-73
2021/08/08 10:44:52;;;;;;;9.52;1.55;;;23.10;72.60;;;;;;5032454;28;20029;-73
2021/08/08 10:47:31;;;;;;;5.72;1.63;;;23.20;72.80;;;;;;5032638;28;20091;-74
2021/08/08 10:50:11;;;;;;;6.95;1.50;;;23.40;72.50;;;;;;5031550;28;20536;-71
2021/08/08 10:52:41;;;;;;;4.97;1.50;;;23.40;72.10;;;;;;5032589;28;20025;-73
2021/08/08 10:55:08;;;;;;;4.25;1.50;;;23.60;72.50;;;;;;5031595;28;20048;-74
2021/08/08 10:57:43;;;;;;;9.07;2.22;;;23.30;72.60;;;;;;5032521;28;20395;-74
2021/08/08 11:00:15;;;;;;;7.05;2.05;;;23.30;72.50;;;;;;5032732;28;20506;-75
2021/08/08 11:02:45;;;;;;;5.20;1.40;;;23.30;72.00;;;;;;5031679;28;20052;-73
2021/08/08 11:05:16;;;;;;;5.78;1.90;;;23.20;72.00;;;;;;5032304;28;20025;-74
2021/08/08 11:07:43;;;;;;;7.30;2.20;;;23.20;72.30;;;;;;5032292;28;20032;-72
2021/08/08 11:10:10;;;;;;;6.05;1.90;;;22.90;72.50;;;;;;5032362;28;20072;-71
2021/08/08 11:12:38;;;;;;;4.68;1.55;;;22.70;72.80;;;;;;5031476;28;20029;-72
2021/08/08 11:15:09;;;;;;;6.13;2.00;;;22.50;73.10;;;;;;5032620;28;20027;-71
2021/08/08 11:17:34;;;;;;;2.00;1.40;;;22.50;73.30;;;;;;5032312;28;20033;-70
2021/08/08 11:20:00;;;;;;;4.15;1.60;;;22.30;73.60;;;;;;5032094;28;20052;-72
2021/08/08 11:22:27;;;;;;;4.45;1.40;;;22.20;74.10;;;;;;5031881;28;20065;-72
2021/08/08 11:25:09;;;;;;;5.50;1.75;;;22.10;74.10;;;;;;5031876;28;20037;-71
2021/08/08 11:27:36;;;;;;;6.78;1.88;;;22.00;74.50;;;;;;5030904;28;20045;-74
2021/08/08 11:30:08;;;;;;;8.63;2.08;;;22.10;75.00;;;;;;5032315;28;20033;-73
2021/08/08 11:32:35;;;;;;;5.63;1.60;;;22.00;75.10;;;;;;5031528;28;20389;-74
2021/08/08 11:35:02;;;;;;;5.93;1.80;;;22.00;75.00;;;;;;5030636;28;20103;-72
2021/08/08 11:37:42;;;;;;;8.45;1.70;;;21.90;74.40;;;;;;5031726;28;20064;-75
2021/08/08 11:40:24;;;;;;;5.10;2.05;;;21.90;74.50;;;;;;5031653;28;20065;-72
2021/08/08 11:42:57;;;;;;;6.60;1.73;;;21.80;74.80;;;;;;5030749;28;20053;-72
2021/08/08 11:45:49;;;;;;;3.92;1.50;;;21.70;75.20;;;;;;5030497;28;20033;-72
2021/08/08 11:48:21;;;;;;;5.55;2.03;;;21.70;75.50;;;;;;5031707;28;20029;-73
2021/08/08 11:51:01;;;;;;;6.82;3.08;;;21.70;75.90;;;;;;5032024;28;20120;-74
2021/08/08 11:53:35;;;;;;;6.13;2.38;;;21.70;76.60;;;;;;5030239;28;20471;-71
2021/08/08 11:56:17;;;;;;;7.30;2.08;;;21.80;75.90;;;;;;5031167;28;20029;-71
2021/08/08 11:58:54;;;;;;;6.45;2.00;;;21.50;76.00;;;;;;5030367;28;20160;-73
2021/08/08 12:01:22;;;;;;;5.43;1.80;;;21.50;76.60;;;;;;5030936;28;20417;-72
2021/08/08 12:03:48;;;;;;;6.38;1.60;;;21.60;76.90;;;;;;5031211;28;20371;-71
2021/08/08 12:06:18;;;;;;;8.77;1.75;;;21.60;76.70;;;;;;5029786;28;20187;-73
2021/08/08 12:08:43;;;;;;;6.43;1.50;;;21.70;76.80;;;;;;5031389;28;20510;-71
2021/08/08 12:11:09;;;;;;;6.10;1.90;;;21.90;76.60;;;;;;5031047;28;20037;-72
2021/08/08 12:13:35;;;;;;;6.00;2.03;;;22.00;76.40;;;;;;5031119;28;20061;-71
2021/08/08 12:16:13;;;;;;;8.50;1.65;;;22.20;76.60;;;;;;5030922;28;20029;-70
2021/08/08 12:18:39;;;;;;;5.97;1.77;;;22.30;75.80;;;;;;5031027;28;20029;-70
2021/08/08 12:21:14;;;;;;;7.25;1.60;;;22.40;75.20;;;;;;5031569;28;20085;-71
2021/08/08 12:23:40;;;;;;;5.68;1.75;;;22.40;75.20;;;;;;5030988;28;20211;-72
2021/08/08 12:26:06;;;;;;;5.78;1.80;;;22.40;75.10;;;;;;5030893;28;20120;-69
2021/08/08 12:28:31;;;;;;;7.32;1.65;;;22.30;75.20;;;;;;5030869;28;20029;-70
2021/08/08 12:31:32;;;;;;;6.32;1.58;;;22.20;75.30;;;;;;5030773;28;20118;-71
2021/08/08 12:34:01;;;;;;;11.35;1.80;;;22.30;75.30;;;;;;5030603;28;20383;-71
2021/08/08 12:36:37;;;;;;;6.18;2.35;;;22.40;75.20;;;;;;5030879;28;20026;-72
2021/08/08 12:39:03;;;;;;;5.90;1.73;;;22.30;75.00;;;;;;5031345;28;20022;-73
2021/08/08 12:41:33;;;;;;;8.52;1.77;;;22.20;75.20;;;;;;5030930;28;20052;-73
2021/08/08 12:44:00;;;;;;;7.70;2.25;;;22.30;74.90;;;;;;5030795;28;20128;-73
2021/08/08 12:46:44;;;;;;;4.15;1.63;;;22.40;75.00;;;;;;5030702;28;20113;-73
2021/08/08 12:49:12;;;;;;;4.60;1.38;;;22.50;74.90;;;;;;5030639;28;20029;-72